sensor_id;sensor_type;location;lat;lon;timestamp;P1;durP1;ratioP1;P2;durP2;ratioP2
45011;SDS011;63444;48.148;11.542;2024-03-08T00:00:05;14.63;;;11.67;;
45011;SDS011;63444;48.148;11.542;2024-03-08T00:02:38;16.30;;;12.20;;
45011;SDS011;63444;48.148;11.542;2024-03-08T00:05:04;15.63;;;12.17;;
45011;SDS011;63444;48.148;11.542;2024-03-08T00:07:31;14.13;;;11.27;;
45011;SDS011;63444;48.148;11.542;2024-03-08T00:09:56;14.87;;;11.53;;
45011;SDS011;63444;48.148;11.542;2024-03-08T00:12:22;16.50;;;11.07;;
45011;SDS011;63444;48.148;11.542;2024-03-08T00:14:48;13.27;;;11.03;;
45011;SDS011;63444;48.148;11.542;2024-03-08T00:17:14;14.87;;;10.87;;
45011;SDS011;63444;48.148;11.542;2024-03-08T00:19:40;13.53;;;10.93;;
45011;SDS011;63444;48.148;11.542;2024-03-08T00:22:06;17.20;;;12.37;;
45011;SDS011;63444;48.148;11.542;2024-03-08T00:24:33;15.13;;;11.53;;
45011;SDS011;63444;48.148;11.542;2024-03-08T00:26:58;16.03;;;11.93;;
45011;SDS011;63444;48.148;11.542;2024-03-08T00:29:24;15.47;;;11.93;;
45011;SDS011;63444;48.148;11.542;2024-03-08T00:31:50;15.97;;;12.47;;
45011;SDS011;63444;48.148;11.542;2024-03-08T00:34:15;14.70;;;11.87;;
45011;SDS011;63444;48.148;11.542;2024-03-08T00:36:41;16.13;;;12.20;;
45011;SDS011;63444;48.148;11.542;2024-03-08T00:39:06;16.10;;;12.17;;
45011;SDS011;63444;48.148;11.542;2024-03-08T00:41:32;19.00;;;14.37;;
45011;SDS011;63444;48.148;11.542;2024-03-08T00:43:58;17.13;;;12.47;;
45011;SDS011;63444;48.148;11.542;2024-03-08T00:46:24;15.57;;;12.33;;
45011;SDS011;63444;48.148;11.542;2024-03-08T00:48:50;17.13;;;12.90;;
45011;SDS011;63444;48.148;11.542;2024-03-08T00:51:15;14.13;;;11.17;;
45011;SDS011;63444;48.148;11.542;2024-03-08T00:53:41;17.27;;;13.13;;
45011;SDS011;63444;48.148;11.542;2024-03-08T00:56:08;16.67;;;12.80;;
45011;SDS011;63444;48.148;11.542;2024-03-08T00:58:38;17.30;;;13.43;;
45011;SDS011;63444;48.148;11.542;2024-03-08T01:01:03;15.73;;;12.43;;
45011;SDS011;63444;48.148;11.542;2024-03-08T01:03:30;16.07;;;12.60;;
45011;SDS011;63444;48.148;11.542;2024-03-08T01:05:59;17.53;;;12.73;;
45011;SDS011;63444;48.148;11.542;2024-03-08T01:08:29;16.20;;;13.20;;
45011;SDS011;63444;48.148;11.542;2024-03-08T01:10:55;17.57;;;13.47;;
45011;SDS011;63444;48.148;11.542;2024-03-08T01:13:21;17.07;;;13.20;;
45011;SDS011;63444;48.148;11.542;2024-03-08T01:15:46;16.40;;;13.10;;
45011;SDS011;63444;48.148;11.542;2024-03-08T01:18:12;17.80;;;13.87;;
45011;SDS011;63444;48.148;11.542;2024-03-08T01:20:37;16.80;;;13.30;;
45011;SDS011;63444;48.148;11.542;2024-03-08T01:23:05;17.97;;;13.23;;
45011;SDS011;63444;48.148;11.542;2024-03-08T01:25:32;18.67;;;14.30;;
45011;SDS011;63444;48.148;11.542;2024-03-08T01:28:01;16.50;;;13.20;;
45011;SDS011;63444;48.148;11.542;2024-03-08T01:30:27;17.33;;;13.63;;
45011;SDS011;63444;48.148;11.542;2024-03-08T01:32:53;18.77;;;13.63;;
45011;SDS011;63444;48.148;11.542;2024-03-08T01:35:18;17.03;;;13.13;;
45011;SDS011;63444;48.148;11.542;2024-03-08T01:37:46;18.93;;;12.77;;
45011;SDS011;63444;48.148;11.542;2024-03-08T01:40:14;19.47;;;14.53;;
45011;SDS011;63444;48.148;11.542;2024-03-08T01:42:41;16.77;;;13.60;;
45011;SDS011;63444;48.148;11.542;2024-03-08T01:45:07;19.13;;;14.07;;
45011;SDS011;63444;48.148;11.542;2024-03-08T01:47:34;22.83;;;13.70;;
45011;SDS011;63444;48.148;11.542;2024-03-08T01:50:00;20.73;;;14.30;;
45011;SDS011;63444;48.148;11.542;2024-03-08T01:52:31;20.60;;;14.83;;
45011;SDS011;63444;48.148;11.542;2024-03-08T01:55:01;20.43;;;14.50;;
45011;SDS011;63444;48.148;11.542;2024-03-08T01:57:28;19.83;;;14.87;;
45011;SDS011;63444;48.148;11.542;2024-03-08T01:59:58;18.47;;;14.30;;
45011;SDS011;63444;48.148;11.542;2024-03-08T02:02:30;20.17;;;15.30;;
45011;SDS011;63444;48.148;11.542;2024-03-08T02:05:02;19.47;;;14.53;;
45011;SDS011;63444;48.148;11.542;2024-03-08T02:07:28;22.97;;;15.00;;
45011;SDS011;63444;48.148;11.542;2024-03-08T02:09:53;19.33;;;14.50;;
45011;SDS011;63444;48.148;11.542;2024-03-08T02:12:19;18.30;;;13.37;;
45011;SDS011;63444;48.148;11.542;2024-03-08T02:14:45;18.10;;;14.30;;
45011;SDS011;63444;48.148;11.542;2024-03-08T02:17:12;19.60;;;14.80;;
45011;SDS011;63444;48.148;11.542;2024-03-08T02:19:38;19.77;;;15.47;;
45011;SDS011;63444;48.148;11.542;2024-03-08T02:22:03;20.00;;;14.47;;
45011;SDS011;63444;48.148;11.542;2024-03-08T02:24:30;20.03;;;15.10;;
45011;SDS011;63444;48.148;11.542;2024-03-08T02:26:57;20.33;;;14.80;;
45011;SDS011;63444;48.148;11.542;2024-03-08T02:29:23;20.87;;;14.87;;
45011;SDS011;63444;48.148;11.542;2024-03-08T02:31:50;21.27;;;15.27;;
45011;SDS011;63444;48.148;11.542;2024-03-08T02:34:16;21.07;;;15.67;;
45011;SDS011;63444;48.148;11.542;2024-03-08T02:36:42;19.67;;;15.23;;
45011;SDS011;63444;48.148;11.542;2024-03-08T02:39:08;19.53;;;14.83;;
45011;SDS011;63444;48.148;11.542;2024-03-08T02:41:35;17.73;;;14.00;;
45011;SDS011;63444;48.148;11.542;2024-03-08T02:44:01;19.73;;;15.17;;
45011;SDS011;63444;48.148;11.542;2024-03-08T02:46:27;19.33;;;14.30;;
45011;SDS011;63444;48.148;11.542;2024-03-08T02:48:53;21.53;;;14.77;;
45011;SDS011;63444;48.148;11.542;2024-03-08T02:51:18;19.17;;;15.13;;
45011;SDS011;63444;48.148;11.542;2024-03-08T02:53:45;21.33;;;15.77;;
45011;SDS011;63444;48.148;11.542;2024-03-08T02:56:13;19.93;;;15.30;;
45011;SDS011;63444;48.148;11.542;2024-03-08T02:58:41;20.63;;;15.77;;
45011;SDS011;63444;48.148;11.542;2024-03-08T03:01:07;22.43;;;15.83;;
45011;SDS011;63444;48.148;11.542;2024-03-08T03:03:35;21.03;;;15.80;;
45011;SDS011;63444;48.148;11.542;2024-03-08T03:06:01;20.87;;;15.63;;
45011;SDS011;63444;48.148;11.542;2024-03-08T03:08:26;20.77;;;15.27;;
45011;SDS011;63444;48.148;11.542;2024-03-08T03:10:52;20.23;;;16.07;;
45011;SDS011;63444;48.148;11.542;2024-03-08T03:13:17;22.23;;;15.60;;
45011;SDS011;63444;48.148;11.542;2024-03-08T03:15:45;23.30;;;16.63;;
45011;SDS011;63444;48.148;11.542;2024-03-08T03:18:11;20.07;;;15.13;;
45011;SDS011;63444;48.148;11.542;2024-03-08T03:20:37;21.87;;;16.00;;
45011;SDS011;63444;48.148;11.542;2024-03-08T03:23:06;20.13;;;15.53;;
45011;SDS011;63444;48.148;11.542;2024-03-08T03:25:33;24.17;;;16.97;;
45011;SDS011;63444;48.148;11.542;2024-03-08T03:28:03;21.50;;;16.07;;
45011;SDS011;63444;48.148;11.542;2024-03-08T03:30:29;20.10;;;15.60;;
45011;SDS011;63444;48.148;11.542;2024-03-08T03:33:02;22.10;;;15.70;;
45011;SDS011;63444;48.148;11.542;2024-03-08T03:35:31;20.27;;;15.53;;
45011;SDS011;63444;48.148;11.542;2024-03-08T03:37:57;19.83;;;15.77;;
45011;SDS011;63444;48.148;11.542;2024-03-08T03:40:28;22.07;;;16.57;;
45011;SDS011;63444;48.148;11.542;2024-03-08T03:42:54;24.93;;;16.47;;
45011;SDS011;63444;48.148;11.542;2024-03-08T03:45:20;21.30;;;16.30;;
45011;SDS011;63444;48.148;11.542;2024-03-08T03:47:46;21.27;;;16.83;;
45011;SDS011;63444;48.148;11.542;2024-03-08T03:50:11;19.77;;;15.40;;
45011;SDS011;63444;48.148;11.542;2024-03-08T03:52:37;20.97;;;16.07;;
45011;SDS011;63444;48.148;11.542;2024-03-08T03:55:03;23.03;;;16.07;;
45011;SDS011;63444;48.148;11.542;2024-03-08T03:57:30;22.10;;;16.17;;
45011;SDS011;63444;48.148;11.542;2024-03-08T03:59:56;22.00;;;15.10;;
45011;SDS011;63444;48.148;11.542;2024-03-08T04:02:23;23.23;;;17.47;;
45011;SDS011;63444;48.148;11.542;2024-03-08T04:04:51;20.57;;;16.60;;
45011;SDS011;63444;48.148;11.542;2024-03-08T04:07:20;22.83;;;17.23;;
45011;SDS011;63444;48.148;11.542;2024-03-08T04:09:46;27.97;;;17.60;;
45011;SDS011;63444;48.148;11.542;2024-03-08T04:12:12;19.67;;;16.10;;
45011;SDS011;63444;48.148;11.542;2024-03-08T04:14:41;24.87;;;18.83;;
45011;SDS011;63444;48.148;11.542;2024-03-08T04:17:07;23.90;;;17.23;;
45011;SDS011;63444;48.148;11.542;2024-03-08T04:19:34;24.10;;;17.60;;
45011;SDS011;63444;48.148;11.542;2024-03-08T04:22:00;24.13;;;17.23;;
45011;SDS011;63444;48.148;11.542;2024-03-08T04:24:27;24.20;;;18.43;;
45011;SDS011;63444;48.148;11.542;2024-03-08T04:26:53;25.10;;;17.53;;
45011;SDS011;63444;48.148;11.542;2024-03-08T04:29:18;22.63;;;17.83;;
45011;SDS011;63444;48.148;11.542;2024-03-08T04:31:44;27.50;;;19.23;;
45011;SDS011;63444;48.148;11.542;2024-03-08T04:34:10;22.33;;;17.03;;
45011;SDS011;63444;48.148;11.542;2024-03-08T04:36:36;23.27;;;17.30;;
45011;SDS011;63444;48.148;11.542;2024-03-08T04:39:02;29.97;;;19.30;;
45011;SDS011;63444;48.148;11.542;2024-03-08T04:41:28;28.07;;;19.77;;
45011;SDS011;63444;48.148;11.542;2024-03-08T04:43:55;24.30;;;18.47;;
45011;SDS011;63444;48.148;11.542;2024-03-08T04:46:23;25.80;;;19.73;;
45011;SDS011;63444;48.148;11.542;2024-03-08T04:48:48;26.23;;;19.47;;
45011;SDS011;63444;48.148;11.542;2024-03-08T04:51:14;28.67;;;20.60;;
45011;SDS011;63444;48.148;11.542;2024-03-08T04:53:40;26.23;;;19.47;;
45011;SDS011;63444;48.148;11.542;2024-03-08T04:56:06;30.13;;;19.70;;
45011;SDS011;63444;48.148;11.542;2024-03-08T04:58:33;25.57;;;20.27;;
45011;SDS011;63444;48.148;11.542;2024-03-08T05:01:02;26.33;;;19.87;;
45011;SDS011;63444;48.148;11.542;2024-03-08T05:03:27;30.20;;;20.63;;
45011;SDS011;63444;48.148;11.542;2024-03-08T05:05:55;29.80;;;21.37;;
45011;SDS011;63444;48.148;11.542;2024-03-08T05:08:21;27.67;;;21.10;;
45011;SDS011;63444;48.148;11.542;2024-03-08T05:10:47;27.70;;;20.27;;
45011;SDS011;63444;48.148;11.542;2024-03-08T05:13:12;24.17;;;19.17;;
45011;SDS011;63444;48.148;11.542;2024-03-08T05:15:38;29.47;;;21.73;;
45011;SDS011;63444;48.148;11.542;2024-03-08T05:18:04;26.37;;;19.97;;
45011;SDS011;63444;48.148;11.542;2024-03-08T05:20:30;26.13;;;19.90;;
45011;SDS011;63444;48.148;11.542;2024-03-08T05:22:56;27.23;;;21.67;;
45011;SDS011;63444;48.148;11.542;2024-03-08T05:25:25;26.87;;;20.60;;
45011;SDS011;63444;48.148;11.542;2024-03-08T05:27:51;26.33;;;19.87;;
45011;SDS011;63444;48.148;11.542;2024-03-08T05:30:17;28.73;;;20.70;;
45011;SDS011;63444;48.148;11.542;2024-03-08T05:32:43;23.10;;;18.67;;
45011;SDS011;63444;48.148;11.542;2024-03-08T05:35:11;26.60;;;20.00;;
45011;SDS011;63444;48.148;11.542;2024-03-08T05:37:37;27.27;;;20.77;;
45011;SDS011;63444;48.148;11.542;2024-03-08T05:40:07;25.67;;;19.23;;
45011;SDS011;63444;48.148;11.542;2024-03-08T05:42:36;25.43;;;19.73;;
45011;SDS011;63444;48.148;11.542;2024-03-08T05:45:02;27.30;;;20.27;;
45011;SDS011;63444;48.148;11.542;2024-03-08T05:47:31;30.60;;;21.97;;
45011;SDS011;63444;48.148;11.542;2024-03-08T05:50:00;29.13;;;21.00;;
45011;SDS011;63444;48.148;11.542;2024-03-08T05:52:26;28.97;;;19.87;;
45011;SDS011;63444;48.148;11.542;2024-03-08T05:54:52;26.93;;;19.30;;
45011;SDS011;63444;48.148;11.542;2024-03-08T05:57:18;28.33;;;20.23;;
45011;SDS011;63444;48.148;11.542;2024-03-08T05:59:44;24.70;;;18.67;;
45011;SDS011;63444;48.148;11.542;2024-03-08T06:02:09;25.43;;;18.47;;
45011;SDS011;63444;48.148;11.542;2024-03-08T06:04:35;24.83;;;18.87;;
45011;SDS011;63444;48.148;11.542;2024-03-08T06:07:01;26.20;;;18.63;;
45011;SDS011;63444;48.148;11.542;2024-03-08T06:09:28;27.13;;;19.43;;
45011;SDS011;63444;48.148;11.542;2024-03-08T06:11:54;24.70;;;18.43;;
45011;SDS011;63444;48.148;11.542;2024-03-08T06:14:22;25.50;;;19.23;;
45011;SDS011;63444;48.148;11.542;2024-03-08T06:16:48;25.10;;;18.50;;
45011;SDS011;63444;48.148;11.542;2024-03-08T06:19:15;24.03;;;18.37;;
45011;SDS011;63444;48.148;11.542;2024-03-08T06:21:41;25.00;;;19.00;;
45011;SDS011;63444;48.148;11.542;2024-03-08T06:24:06;29.07;;;19.73;;
45011;SDS011;63444;48.148;11.542;2024-03-08T06:26:32;25.33;;;19.30;;
45011;SDS011;63444;48.148;11.542;2024-03-08T06:28:58;26.43;;;18.70;;
45011;SDS011;63444;48.148;11.542;2024-03-08T06:31:23;24.33;;;18.13;;
45011;SDS011;63444;48.148;11.542;2024-03-08T06:33:49;22.73;;;18.00;;
45011;SDS011;63444;48.148;11.542;2024-03-08T06:36:18;25.23;;;18.97;;
45011;SDS011;63444;48.148;11.542;2024-03-08T06:38:45;29.10;;;18.27;;
45011;SDS011;63444;48.148;11.542;2024-03-08T06:41:11;23.03;;;17.17;;
45011;SDS011;63444;48.148;11.542;2024-03-08T06:43:44;24.53;;;17.77;;
45011;SDS011;63444;48.148;11.542;2024-03-08T06:46:10;25.53;;;17.20;;
45011;SDS011;63444;48.148;11.542;2024-03-08T06:48:39;24.80;;;18.50;;
45011;SDS011;63444;48.148;11.542;2024-03-08T06:51:05;25.20;;;18.73;;
45011;SDS011;63444;48.148;11.542;2024-03-08T06:53:31;28.77;;;20.33;;
45011;SDS011;63444;48.148;11.542;2024-03-08T06:56:00;27.10;;;18.57;;
45011;SDS011;63444;48.148;11.542;2024-03-08T06:58:27;24.63;;;16.97;;
45011;SDS011;63444;48.148;11.542;2024-03-08T07:00:53;24.67;;;17.67;;
45011;SDS011;63444;48.148;11.542;2024-03-08T07:03:19;25.43;;;18.30;;
45011;SDS011;63444;48.148;11.542;2024-03-08T07:05:47;25.37;;;18.47;;
45011;SDS011;63444;48.148;11.542;2024-03-08T07:08:13;26.37;;;18.57;;
45011;SDS011;63444;48.148;11.542;2024-03-08T07:10:39;24.00;;;17.57;;
45011;SDS011;63444;48.148;11.542;2024-03-08T07:13:07;21.30;;;15.70;;
45011;SDS011;63444;48.148;11.542;2024-03-08T07:15:32;22.93;;;16.60;;
45011;SDS011;63444;48.148;11.542;2024-03-08T07:17:58;24.17;;;17.20;;
45011;SDS011;63444;48.148;11.542;2024-03-08T07:20:25;23.60;;;17.90;;
45011;SDS011;63444;48.148;11.542;2024-03-08T07:22:50;23.30;;;17.73;;
45011;SDS011;63444;48.148;11.542;2024-03-08T07:25:16;26.00;;;17.07;;
45011;SDS011;63444;48.148;11.542;2024-03-08T07:27:55;25.23;;;18.20;;
45011;SDS011;63444;48.148;11.542;2024-03-08T07:30:24;24.33;;;17.40;;
45011;SDS011;63444;48.148;11.542;2024-03-08T07:33:09;22.10;;;16.67;;
45011;SDS011;63444;48.148;11.542;2024-03-08T07:35:38;24.30;;;17.03;;
45011;SDS011;63444;48.148;11.542;2024-03-08T07:38:05;22.83;;;16.97;;
45011;SDS011;63444;48.148;11.542;2024-03-08T07:40:35;24.77;;;17.67;;
45011;SDS011;63444;48.148;11.542;2024-03-08T07:43:04;22.43;;;16.73;;
45011;SDS011;63444;48.148;11.542;2024-03-08T07:45:29;24.83;;;17.77;;
45011;SDS011;63444;48.148;11.542;2024-03-08T07:47:55;24.43;;;18.33;;
45011;SDS011;63444;48.148;11.542;2024-03-08T07:50:21;25.13;;;17.83;;
45011;SDS011;63444;48.148;11.542;2024-03-08T07:52:47;23.77;;;16.40;;
45011;SDS011;63444;48.148;11.542;2024-03-08T07:55:13;26.13;;;17.47;;
45011;SDS011;63444;48.148;11.542;2024-03-08T07:57:40;23.73;;;16.90;;
45011;SDS011;63444;48.148;11.542;2024-03-08T08:00:05;24.20;;;17.40;;
45011;SDS011;63444;48.148;11.542;2024-03-08T08:02:35;25.70;;;17.83;;
45011;SDS011;63444;48.148;11.542;2024-03-08T08:05:01;23.63;;;17.10;;
45011;SDS011;63444;48.148;11.542;2024-03-08T08:07:28;23.67;;;16.70;;
45011;SDS011;63444;48.148;11.542;2024-03-08T08:09:54;22.73;;;16.80;;
45011;SDS011;63444;48.148;11.542;2024-03-08T08:12:20;22.67;;;16.13;;
45011;SDS011;63444;48.148;11.542;2024-03-08T08:14:46;23.33;;;17.13;;
45011;SDS011;63444;48.148;11.542;2024-03-08T08:17:11;24.03;;;17.00;;
45011;SDS011;63444;48.148;11.542;2024-03-08T08:19:37;25.27;;;17.77;;
45011;SDS011;63444;48.148;11.542;2024-03-08T08:22:05;24.23;;;17.03;;
45011;SDS011;63444;48.148;11.542;2024-03-08T08:24:33;27.13;;;18.63;;
45011;SDS011;63444;48.148;11.542;2024-03-08T08:26:59;25.00;;;17.67;;
45011;SDS011;63444;48.148;11.542;2024-03-08T08:29:25;23.43;;;17.47;;
45011;SDS011;63444;48.148;11.542;2024-03-08T08:31:51;26.30;;;17.83;;
45011;SDS011;63444;48.148;11.542;2024-03-08T08:34:17;23.83;;;17.57;;
45011;SDS011;63444;48.148;11.542;2024-03-08T08:36:44;26.60;;;17.27;;
45011;SDS011;63444;48.148;11.542;2024-03-08T08:39:10;27.00;;;16.17;;
45011;SDS011;63444;48.148;11.542;2024-03-08T08:41:38;22.43;;;16.87;;
45011;SDS011;63444;48.148;11.542;2024-03-08T08:44:07;23.77;;;16.97;;
45011;SDS011;63444;48.148;11.542;2024-03-08T08:46:37;21.73;;;15.23;;
45011;SDS011;63444;48.148;11.542;2024-03-08T08:49:04;21.40;;;15.83;;
45011;SDS011;63444;48.148;11.542;2024-03-08T08:51:31;23.13;;;15.73;;
45011;SDS011;63444;48.148;11.542;2024-03-08T08:53:58;22.27;;;15.67;;
45011;SDS011;63444;48.148;11.542;2024-03-08T08:56:24;20.13;;;14.97;;
45011;SDS011;63444;48.148;11.542;2024-03-08T08:58:51;23.00;;;15.83;;
45011;SDS011;63444;48.148;11.542;2024-03-08T09:01:18;20.00;;;15.37;;
45011;SDS011;63444;48.148;11.542;2024-03-08T09:03:44;22.93;;;15.27;;
45011;SDS011;63444;48.148;11.542;2024-03-08T09:06:11;22.30;;;15.30;;
45011;SDS011;63444;48.148;11.542;2024-03-08T09:08:40;21.93;;;15.23;;
45011;SDS011;63444;48.148;11.542;2024-03-08T09:11:06;23.23;;;15.40;;
45011;SDS011;63444;48.148;11.542;2024-03-08T09:13:32;22.30;;;15.23;;
45011;SDS011;63444;48.148;11.542;2024-03-08T09:16:04;19.77;;;15.40;;
45011;SDS011;63444;48.148;11.542;2024-03-08T09:18:31;21.27;;;15.33;;
45011;SDS011;63444;48.148;11.542;2024-03-08T09:21:00;19.90;;;14.73;;
45011;SDS011;63444;48.148;11.542;2024-03-08T09:23:26;20.50;;;15.57;;
45011;SDS011;63444;48.148;11.542;2024-03-08T09:25:55;20.40;;;14.83;;
45011;SDS011;63444;48.148;11.542;2024-03-08T09:28:22;20.43;;;15.60;;
45011;SDS011;63444;48.148;11.542;2024-03-08T09:30:48;20.57;;;16.17;;
45011;SDS011;63444;48.148;11.542;2024-03-08T09:33:14;22.90;;;15.50;;
45011;SDS011;63444;48.148;11.542;2024-03-08T09:35:44;19.63;;;14.43;;
45011;SDS011;63444;48.148;11.542;2024-03-08T09:38:12;19.27;;;15.13;;
45011;SDS011;63444;48.148;11.542;2024-03-08T09:40:38;19.47;;;15.13;;
45011;SDS011;63444;48.148;11.542;2024-03-08T09:43:06;20.00;;;15.37;;
45011;SDS011;63444;48.148;11.542;2024-03-08T09:45:32;20.80;;;16.43;;
45011;SDS011;63444;48.148;11.542;2024-03-08T09:48:04;23.83;;;16.30;;
45011;SDS011;63444;48.148;11.542;2024-03-08T09:50:30;21.87;;;16.30;;
45011;SDS011;63444;48.148;11.542;2024-03-08T09:52:57;19.23;;;14.73;;
45011;SDS011;63444;48.148;11.542;2024-03-08T09:55:23;21.93;;;15.57;;
45011;SDS011;63444;48.148;11.542;2024-03-08T09:57:53;20.77;;;16.30;;
45011;SDS011;63444;48.148;11.542;2024-03-08T10:00:42;22.87;;;15.80;;
45011;SDS011;63444;48.148;11.542;2024-03-08T10:03:08;22.23;;;16.47;;
45011;SDS011;63444;48.148;11.542;2024-03-08T10:05:34;22.03;;;16.37;;
45011;SDS011;63444;48.148;11.542;2024-03-08T10:08:00;21.07;;;16.20;;
45011;SDS011;63444;48.148;11.542;2024-03-08T10:10:25;22.00;;;16.17;;
45011;SDS011;63444;48.148;11.542;2024-03-08T10:12:51;20.33;;;15.90;;
45011;SDS011;63444;48.148;11.542;2024-03-08T10:15:17;20.77;;;15.67;;
45011;SDS011;63444;48.148;11.542;2024-03-08T10:17:43;22.90;;;16.00;;
45011;SDS011;63444;48.148;11.542;2024-03-08T10:20:15;21.17;;;14.70;;
45011;SDS011;63444;48.148;11.542;2024-03-08T10:22:44;21.37;;;15.60;;
45011;SDS011;63444;48.148;11.542;2024-03-08T10:25:10;18.80;;;15.33;;
45011;SDS011;63444;48.148;11.542;2024-03-08T10:27:39;19.53;;;15.70;;
45011;SDS011;63444;48.148;11.542;2024-03-08T10:30:06;20.23;;;14.60;;
45011;SDS011;63444;48.148;11.542;2024-03-08T10:32:45;20.57;;;13.43;;
45011;SDS011;63444;48.148;11.542;2024-03-08T10:35:11;19.87;;;13.60;;
45011;SDS011;63444;48.148;11.542;2024-03-08T10:37:50;17.33;;;14.20;;
45011;SDS011;63444;48.148;11.542;2024-03-08T10:40:25;17.47;;;13.90;;
45011;SDS011;63444;48.148;11.542;2024-03-08T10:51:04;16.03;;;13.47;;
45011;SDS011;63444;48.148;11.542;2024-03-08T10:53:30;15.47;;;12.80;;
45011;SDS011;63444;48.148;11.542;2024-03-08T10:55:58;18.00;;;12.53;;
45011;SDS011;63444;48.148;11.542;2024-03-08T10:58:25;14.80;;;12.00;;
45011;SDS011;63444;48.148;11.542;2024-03-08T11:00:55;16.83;;;12.87;;
45011;SDS011;63444;48.148;11.542;2024-03-08T11:06:13;17.53;;;12.83;;
45011;SDS011;63444;48.148;11.542;2024-03-08T11:08:43;16.57;;;12.67;;
45011;SDS011;63444;48.148;11.542;2024-03-08T11:14:08;14.97;;;11.80;;
45011;SDS011;63444;48.148;11.542;2024-03-08T11:17:10;15.43;;;11.57;;
45011;SDS011;63444;48.148;11.542;2024-03-08T11:19:35;15.67;;;12.23;;
45011;SDS011;63444;48.148;11.542;2024-03-08T11:22:01;14.17;;;11.00;;
45011;SDS011;63444;48.148;11.542;2024-03-08T11:24:36;16.17;;;12.43;;
45011;SDS011;63444;48.148;11.542;2024-03-08T11:27:05;14.80;;;12.33;;
45011;SDS011;63444;48.148;11.542;2024-03-08T11:29:32;16.20;;;12.67;;
45011;SDS011;63444;48.148;11.542;2024-03-08T11:34:42;15.43;;;12.43;;
45011;SDS011;63444;48.148;11.542;2024-03-08T11:37:21;16.63;;;13.10;;
45011;SDS011;63444;48.148;11.542;2024-03-08T11:42:14;17.20;;;13.93;;
45011;SDS011;63444;48.148;11.542;2024-03-08T11:44:46;18.10;;;14.73;;
45011;SDS011;63444;48.148;11.542;2024-03-08T11:47:13;17.43;;;13.47;;
45011;SDS011;63444;48.148;11.542;2024-03-08T11:49:39;18.47;;;13.83;;
45011;SDS011;63444;48.148;11.542;2024-03-08T11:52:15;17.90;;;13.63;;
45011;SDS011;63444;48.148;11.542;2024-03-08T11:54:51;15.77;;;12.93;;
45011;SDS011;63444;48.148;11.542;2024-03-08T11:57:22;16.90;;;13.47;;
45011;SDS011;63444;48.148;11.542;2024-03-08T11:59:52;17.57;;;13.13;;
45011;SDS011;63444;48.148;11.542;2024-03-08T12:02:18;15.80;;;12.80;;
45011;SDS011;63444;48.148;11.542;2024-03-08T12:04:44;16.50;;;13.40;;
45011;SDS011;63444;48.148;11.542;2024-03-08T12:07:13;15.37;;;12.77;;
45011;SDS011;63444;48.148;11.542;2024-03-08T12:09:43;16.93;;;12.97;;
45011;SDS011;63444;48.148;11.542;2024-03-08T12:12:30;17.17;;;13.33;;
45011;SDS011;63444;48.148;11.542;2024-03-08T12:14:57;18.83;;;14.00;;
45011;SDS011;63444;48.148;11.542;2024-03-08T12:17:23;17.50;;;13.40;;
45011;SDS011;63444;48.148;11.542;2024-03-08T12:19:49;20.10;;;14.80;;
45011;SDS011;63444;48.148;11.542;2024-03-08T12:22:14;18.17;;;13.37;;
45011;SDS011;63444;48.148;11.542;2024-03-08T12:24:40;18.20;;;13.50;;
45011;SDS011;63444;48.148;11.542;2024-03-08T12:27:19;18.47;;;13.63;;
45011;SDS011;63444;48.148;11.542;2024-03-08T12:29:45;17.23;;;13.37;;
45011;SDS011;63444;48.148;11.542;2024-03-08T12:32:12;16.60;;;13.17;;
45011;SDS011;63444;48.148;11.542;2024-03-08T12:34:37;20.80;;;15.00;;
45011;SDS011;63444;48.148;11.542;2024-03-08T12:37:03;17.23;;;13.73;;
45011;SDS011;63444;48.148;11.542;2024-03-08T12:39:32;17.63;;;13.93;;
45011;SDS011;63444;48.148;11.542;2024-03-08T12:41:58;18.93;;;14.03;;
45011;SDS011;63444;48.148;11.542;2024-03-08T12:44:25;18.20;;;14.00;;
45011;SDS011;63444;48.148;11.542;2024-03-08T12:46:51;19.53;;;14.60;;
45011;SDS011;63444;48.148;11.542;2024-03-08T12:49:18;16.13;;;13.47;;
45011;SDS011;63444;48.148;11.542;2024-03-08T12:51:47;18.70;;;14.37;;
45011;SDS011;63444;48.148;11.542;2024-03-08T12:54:13;18.33;;;13.83;;
45011;SDS011;63444;48.148;11.542;2024-03-08T12:56:38;20.17;;;14.23;;
45011;SDS011;63444;48.148;11.542;2024-03-08T12:59:05;18.17;;;13.37;;
45011;SDS011;63444;48.148;11.542;2024-03-08T13:01:35;17.00;;;13.47;;
45011;SDS011;63444;48.148;11.542;2024-03-08T13:04:02;15.87;;;12.50;;
45011;SDS011;63444;48.148;11.542;2024-03-08T13:06:29;17.53;;;13.80;;
45011;SDS011;63444;48.148;11.542;2024-03-08T13:08:55;18.47;;;13.50;;
45011;SDS011;63444;48.148;11.542;2024-03-08T13:11:23;17.27;;;13.73;;
45011;SDS011;63444;48.148;11.542;2024-03-08T13:13:49;17.93;;;14.27;;
45011;SDS011;63444;48.148;11.542;2024-03-08T13:16:16;16.90;;;14.00;;
45011;SDS011;63444;48.148;11.542;2024-03-08T13:18:44;18.60;;;14.47;;
45011;SDS011;63444;48.148;11.542;2024-03-08T13:21:10;17.87;;;13.73;;
45011;SDS011;63444;48.148;11.542;2024-03-08T13:23:38;18.23;;;13.90;;
45011;SDS011;63444;48.148;11.542;2024-03-08T13:26:08;16.17;;;12.73;;
45011;SDS011;63444;48.148;11.542;2024-03-08T13:28:41;16.57;;;12.70;;
45011;SDS011;63444;48.148;11.542;2024-03-08T13:31:19;16.10;;;13.40;;
45011;SDS011;63444;48.148;11.542;2024-03-08T13:33:45;17.83;;;14.03;;
45011;SDS011;63444;48.148;11.542;2024-03-08T13:36:12;18.93;;;13.77;;
45011;SDS011;63444;48.148;11.542;2024-03-08T13:38:44;15.57;;;12.57;;
45011;SDS011;63444;48.148;11.542;2024-03-08T13:41:11;16.07;;;12.50;;
45011;SDS011;63444;48.148;11.542;2024-03-08T13:43:40;16.77;;;12.13;;
45011;SDS011;63444;48.148;11.542;2024-03-08T13:46:06;17.43;;;13.23;;
45011;SDS011;63444;48.148;11.542;2024-03-08T13:48:32;16.10;;;12.43;;
45011;SDS011;63444;48.148;11.542;2024-03-08T13:50:58;19.17;;;13.13;;
45011;SDS011;63444;48.148;11.542;2024-03-08T13:53:25;17.33;;;13.10;;
45011;SDS011;63444;48.148;11.542;2024-03-08T13:55:51;15.93;;;12.43;;
45011;SDS011;63444;48.148;11.542;2024-03-08T13:58:17;15.77;;;12.30;;
45011;SDS011;63444;48.148;11.542;2024-03-08T14:00:43;15.17;;;12.07;;
45011;SDS011;63444;48.148;11.542;2024-03-08T14:03:11;16.47;;;11.93;;
45011;SDS011;63444;48.148;11.542;2024-03-08T14:05:40;13.87;;;11.50;;
45011;SDS011;63444;48.148;11.542;2024-03-08T14:08:07;16.43;;;11.87;;
45011;SDS011;63444;48.148;11.542;2024-03-08T14:10:37;15.07;;;11.87;;
45011;SDS011;63444;48.148;11.542;2024-03-08T14:13:03;13.50;;;11.60;;
45011;SDS011;63444;48.148;11.542;2024-03-08T14:15:32;16.53;;;12.67;;
45011;SDS011;63444;48.148;11.542;2024-03-08T14:17:59;15.80;;;12.57;;
45011;SDS011;63444;48.148;11.542;2024-03-08T14:20:25;14.50;;;12.10;;
45011;SDS011;63444;48.148;11.542;2024-03-08T14:22:54;14.47;;;11.93;;
45011;SDS011;63444;48.148;11.542;2024-03-08T14:25:20;14.43;;;12.20;;
45011;SDS011;63444;48.148;11.542;2024-03-08T14:27:48;16.73;;;11.67;;